sensor_id;sensor_type;location;lat;lon;timestamp;P1;durP1;ratioP1;P2;durP2;ratioP2
79646;SDS011;69119;41.718;21.786;2023-08-12T00:00:28;6.78;;;2.88;;
79646;SDS011;69119;41.718;21.786;2023-08-12T00:05:20;7.25;;;3.25;;
79646;SDS011;69119;41.718;21.786;2023-08-12T00:07:47;6.15;;;2.92;;
79646;SDS011;69119;41.718;21.786;2023-08-12T00:10:14;6.75;;;3.00;;
79646;SDS011;69119;41.718;21.786;2023-08-12T00:12:40;6.20;;;3.13;;
79646;SDS011;69119;41.718;21.786;2023-08-12T00:15:07;6.68;;;3.30;;
79646;SDS011;69119;41.718;21.786;2023-08-12T00:17:33;6.43;;;2.65;;
79646;SDS011;69119;41.718;21.786;2023-08-12T00:20:02;6.47;;;2.75;;
79646;SDS011;69119;41.718;21.786;2023-08-12T00:22:32;6.40;;;2.95;;
79646;SDS011;69119;41.718;21.786;2023-08-12T00:24:58;6.82;;;2.63;;
79646;SDS011;69119;41.718;21.786;2023-08-12T00:27:24;7.13;;;3.38;;
79646;SDS011;69119;41.718;21.786;2023-08-12T00:29:50;7.95;;;2.60;;
79646;SDS011;69119;41.718;21.786;2023-08-12T00:32:16;7.53;;;3.25;;
79646;SDS011;69119;41.718;21.786;2023-08-12T00:34:43;7.65;;;3.60;;
79646;SDS011;69119;41.718;21.786;2023-08-12T00:37:09;6.57;;;3.15;;
79646;SDS011;69119;41.718;21.786;2023-08-12T00:39:35;6.25;;;2.67;;
79646;SDS011;69119;41.718;21.786;2023-08-12T00:42:01;7.97;;;3.47;;
79646;SDS011;69119;41.718;21.786;2023-08-12T00:44:27;6.05;;;2.45;;
79646;SDS011;69119;41.718;21.786;2023-08-12T00:46:53;6.63;;;3.35;;
79646;SDS011;69119;41.718;21.786;2023-08-12T00:49:20;6.10;;;3.40;;
79646;SDS011;69119;41.718;21.786;2023-08-12T00:51:46;7.18;;;3.65;;
79646;SDS011;69119;41.718;21.786;2023-08-12T00:54:14;6.82;;;3.22;;
79646;SDS011;69119;41.718;21.786;2023-08-12T00:56:41;7.60;;;3.20;;
79646;SDS011;69119;41.718;21.786;2023-08-12T00:59:07;8.50;;;3.30;;
79646;SDS011;69119;41.718;21.786;2023-08-12T01:01:34;6.55;;;3.03;;
79646;SDS011;69119;41.718;21.786;2023-08-12T01:04:01;7.10;;;2.75;;
79646;SDS011;69119;41.718;21.786;2023-08-12T01:06:27;7.95;;;3.15;;
79646;SDS011;69119;41.718;21.786;2023-08-12T01:08:53;9.55;;;3.63;;
79646;SDS011;69119;41.718;21.786;2023-08-12T01:16:28;6.15;;;3.22;;
79646;SDS011;69119;41.718;21.786;2023-08-12T01:18:55;7.55;;;3.22;;
79646;SDS011;69119;41.718;21.786;2023-08-12T01:21:21;6.47;;;3.15;;
79646;SDS011;69119;41.718;21.786;2023-08-12T01:23:50;9.10;;;3.40;;
79646;SDS011;69119;41.718;21.786;2023-08-12T01:26:16;7.22;;;3.47;;
79646;SDS011;69119;41.718;21.786;2023-08-12T01:28:42;6.88;;;3.58;;
79646;SDS011;69119;41.718;21.786;2023-08-12T01:31:12;8.55;;;3.45;;
79646;SDS011;69119;41.718;21.786;2023-08-12T01:36:19;6.53;;;2.78;;
79646;SDS011;69119;41.718;21.786;2023-08-12T01:38:46;7.00;;;2.80;;
79646;SDS011;69119;41.718;21.786;2023-08-12T01:41:13;6.88;;;3.13;;
79646;SDS011;69119;41.718;21.786;2023-08-12T01:43:39;6.07;;;2.70;;
79646;SDS011;69119;41.718;21.786;2023-08-12T01:46:06;6.20;;;2.58;;
79646;SDS011;69119;41.718;21.786;2023-08-12T01:48:32;8.55;;;3.55;;
79646;SDS011;69119;41.718;21.786;2023-08-12T01:50:58;6.80;;;3.72;;
79646;SDS011;69119;41.718;21.786;2023-08-12T01:53:24;6.82;;;3.17;;
79646;SDS011;69119;41.718;21.786;2023-08-12T01:55:51;7.18;;;2.80;;
79646;SDS011;69119;41.718;21.786;2023-08-12T01:58:17;6.28;;;2.83;;
79646;SDS011;69119;41.718;21.786;2023-08-12T02:00:43;6.80;;;2.72;;
79646;SDS011;69119;41.718;21.786;2023-08-12T02:03:10;6.30;;;2.88;;
79646;SDS011;69119;41.718;21.786;2023-08-12T02:08:02;7.03;;;2.65;;
79646;SDS011;69119;41.718;21.786;2023-08-12T02:10:29;6.85;;;2.85;;
79646;SDS011;69119;41.718;21.786;2023-08-12T02:12:55;6.72;;;2.42;;
79646;SDS011;69119;41.718;21.786;2023-08-12T02:15:21;5.90;;;2.90;;
79646;SDS011;69119;41.718;21.786;2023-08-12T02:17:47;7.15;;;2.90;;
79646;SDS011;69119;41.718;21.786;2023-08-12T02:20:13;6.40;;;3.03;;
79646;SDS011;69119;41.718;21.786;2023-08-12T02:22:39;7.15;;;3.40;;
79646;SDS011;69119;41.718;21.786;2023-08-12T02:25:05;6.22;;;3.22;;
79646;SDS011;69119;41.718;21.786;2023-08-12T02:27:31;6.30;;;2.70;;
79646;SDS011;69119;41.718;21.786;2023-08-12T02:29:57;8.82;;;2.88;;
79646;SDS011;69119;41.718;21.786;2023-08-12T02:32:23;6.32;;;2.90;;
79646;SDS011;69119;41.718;21.786;2023-08-12T02:34:50;7.13;;;3.03;;
79646;SDS011;69119;41.718;21.786;2023-08-12T02:37:16;6.18;;;3.10;;
79646;SDS011;69119;41.718;21.786;2023-08-12T02:39:42;7.22;;;2.88;;
79646;SDS011;69119;41.718;21.786;2023-08-12T02:42:08;7.82;;;2.95;;
79646;SDS011;69119;41.718;21.786;2023-08-12T02:47:01;6.32;;;2.85;;
79646;SDS011;69119;41.718;21.786;2023-08-12T02:49:27;6.82;;;2.80;;
79646;SDS011;69119;41.718;21.786;2023-08-12T02:51:53;6.50;;;3.25;;
79646;SDS011;69119;41.718;21.786;2023-08-12T02:54:19;8.25;;;3.03;;
79646;SDS011;69119;41.718;21.786;2023-08-12T02:56:45;6.25;;;2.95;;
79646;SDS011;69119;41.718;21.786;2023-08-12T02:59:11;6.15;;;3.05;;
79646;SDS011;69119;41.718;21.786;2023-08-12T03:01:40;6.15;;;2.97;;
79646;SDS011;69119;41.718;21.786;2023-08-12T03:04:06;6.55;;;3.00;;
79646;SDS011;69119;41.718;21.786;2023-08-12T03:06:32;5.60;;;2.80;;
79646;SDS011;69119;41.718;21.786;2023-08-12T03:08:58;7.38;;;3.58;;
79646;SDS011;69119;41.718;21.786;2023-08-12T03:11:24;6.80;;;3.85;;
79646;SDS011;69119;41.718;21.786;2023-08-12T03:13:50;6.63;;;2.55;;
79646;SDS011;69119;41.718;21.786;2023-08-12T03:16:16;6.35;;;2.85;;
79646;SDS011;69119;41.718;21.786;2023-08-12T03:18:42;6.15;;;2.70;;
79646;SDS011;69119;41.718;21.786;2023-08-12T03:21:09;7.38;;;3.60;;
79646;SDS011;69119;41.718;21.786;2023-08-12T03:23:35;6.90;;;3.53;;
79646;SDS011;69119;41.718;21.786;2023-08-12T03:26:01;7.28;;;3.55;;
79646;SDS011;69119;41.718;21.786;2023-08-12T03:28:28;6.93;;;3.15;;
79646;SDS011;69119;41.718;21.786;2023-08-12T03:30:54;6.80;;;2.60;;
79646;SDS011;69119;41.718;21.786;2023-08-12T03:33:20;6.80;;;3.20;;
79646;SDS011;69119;41.718;21.786;2023-08-12T03:35:46;5.95;;;2.83;;
79646;SDS011;69119;41.718;21.786;2023-08-12T03:38:13;6.78;;;3.20;;
79646;SDS011;69119;41.718;21.786;2023-08-12T03:40:39;7.78;;;3.17;;
79646;SDS011;69119;41.718;21.786;2023-08-12T03:43:06;7.05;;;2.88;;
79646;SDS011;69119;41.718;21.786;2023-08-12T03:45:33;7.38;;;3.05;;
79646;SDS011;69119;41.718;21.786;2023-08-12T03:47:59;7.35;;;3.13;;
79646;SDS011;69119;41.718;21.786;2023-08-12T03:50:25;8.88;;;3.33;;
79646;SDS011;69119;41.718;21.786;2023-08-12T03:52:51;6.93;;;3.33;;
79646;SDS011;69119;41.718;21.786;2023-08-12T03:55:17;7.05;;;2.90;;
79646;SDS011;69119;41.718;21.786;2023-08-12T03:57:44;7.20;;;3.00;;
79646;SDS011;69119;41.718;21.786;2023-08-12T04:00:10;8.10;;;3.92;;
79646;SDS011;69119;41.718;21.786;2023-08-12T04:02:36;10.23;;;3.17;;
79646;SDS011;69119;41.718;21.786;2023-08-12T04:05:02;7.18;;;2.72;;
79646;SDS011;69119;41.718;21.786;2023-08-12T04:07:28;6.05;;;3.20;;
79646;SDS011;69119;41.718;21.786;2023-08-12T04:09:54;7.28;;;3.58;;
79646;SDS011;69119;41.718;21.786;2023-08-12T04:12:20;6.20;;;2.75;;
79646;SDS011;69119;41.718;21.786;2023-08-12T04:14:46;7.38;;;2.97;;
79646;SDS011;69119;41.718;21.786;2023-08-12T04:17:13;6.80;;;3.08;;
79646;SDS011;69119;41.718;21.786;2023-08-12T04:19:39;6.07;;;2.90;;
79646;SDS011;69119;41.718;21.786;2023-08-12T04:22:05;7.93;;;3.28;;
79646;SDS011;69119;41.718;21.786;2023-08-12T04:24:31;6.53;;;3.20;;
79646;SDS011;69119;41.718;21.786;2023-08-12T04:26:57;6.93;;;3.95;;
79646;SDS011;69119;41.718;21.786;2023-08-12T04:29:23;6.15;;;3.05;;
79646;SDS011;69119;41.718;21.786;2023-08-12T04:31:49;6.82;;;3.72;;
79646;SDS011;69119;41.718;21.786;2023-08-12T04:34:15;6.43;;;3.15;;
79646;SDS011;69119;41.718;21.786;2023-08-12T04:36:41;6.53;;;3.58;;
79646;SDS011;69119;41.718;21.786;2023-08-12T04:39:07;6.88;;;2.53;;
79646;SDS011;69119;41.718;21.786;2023-08-12T04:43:59;5.80;;;2.88;;
79646;SDS011;69119;41.718;21.786;2023-08-12T04:46:25;7.60;;;3.50;;
79646;SDS011;69119;41.718;21.786;2023-08-12T04:48:51;7.20;;;2.88;;
79646;SDS011;69119;41.718;21.786;2023-08-12T04:51:18;6.43;;;3.08;;
79646;SDS011;69119;41.718;21.786;2023-08-12T04:53:44;6.68;;;2.97;;
79646;SDS011;69119;41.718;21.786;2023-08-12T04:56:10;6.65;;;3.58;;
79646;SDS011;69119;41.718;21.786;2023-08-12T04:58:36;6.07;;;2.83;;
79646;SDS011;69119;41.718;21.786;2023-08-12T05:01:02;5.90;;;3.08;;
79646;SDS011;69119;41.718;21.786;2023-08-12T05:03:28;8.45;;;3.28;;
79646;SDS011;69119;41.718;21.786;2023-08-12T05:05:54;7.18;;;3.15;;
79646;SDS011;69119;41.718;21.786;2023-08-12T05:08:20;7.15;;;3.17;;
79646;SDS011;69119;41.718;21.786;2023-08-12T05:10:49;6.63;;;3.33;;
79646;SDS011;69119;41.718;21.786;2023-08-12T05:13:16;8.07;;;3.15;;
79646;SDS011;69119;41.718;21.786;2023-08-12T05:18:08;6.82;;;2.95;;
79646;SDS011;69119;41.718;21.786;2023-08-12T05:20:34;7.93;;;3.15;;
79646;SDS011;69119;41.718;21.786;2023-08-12T05:23:00;5.57;;;2.55;;
79646;SDS011;69119;41.718;21.786;2023-08-12T05:25:26;6.38;;;3.17;;
79646;SDS011;69119;41.718;21.786;2023-08-12T05:27:52;6.68;;;3.00;;
79646;SDS011;69119;41.718;21.786;2023-08-12T05:30:18;8.75;;;3.35;;
79646;SDS011;69119;41.718;21.786;2023-08-12T05:32:44;9.27;;;2.85;;
79646;SDS011;69119;41.718;21.786;2023-08-12T05:35:10;8.70;;;3.53;;
79646;SDS011;69119;41.718;21.786;2023-08-12T05:37:36;7.32;;;3.10;;
79646;SDS011;69119;41.718;21.786;2023-08-12T05:40:02;7.53;;;2.83;;
79646;SDS011;69119;41.718;21.786;2023-08-12T05:42:33;10.13;;;3.45;;
79646;SDS011;69119;41.718;21.786;2023-08-12T05:44:59;7.32;;;2.88;;
79646;SDS011;69119;41.718;21.786;2023-08-12T05:47:25;7.57;;;2.60;;
79646;SDS011;69119;41.718;21.786;2023-08-12T05:49:51;6.38;;;2.67;;
79646;SDS011;69119;41.718;21.786;2023-08-12T05:52:17;6.15;;;2.72;;
79646;SDS011;69119;41.718;21.786;2023-08-12T05:57:09;6.82;;;3.17;;
79646;SDS011;69119;41.718;21.786;2023-08-12T05:59:35;6.50;;;2.80;;
79646;SDS011;69119;41.718;21.786;2023-08-12T06:04:27;7.63;;;3.58;;
79646;SDS011;69119;41.718;21.786;2023-08-12T06:06:53;7.00;;;3.00;;
79646;SDS011;69119;41.718;21.786;2023-08-12T06:09:19;5.82;;;3.05;;
79646;SDS011;69119;41.718;21.786;2023-08-12T06:14:11;6.88;;;3.22;;
79646;SDS011;69119;41.718;21.786;2023-08-12T06:16:37;6.40;;;2.97;;
79646;SDS011;69119;41.718;21.786;2023-08-12T06:19:03;6.97;;;2.60;;
79646;SDS011;69119;41.718;21.786;2023-08-12T06:21:30;6.60;;;2.67;;
79646;SDS011;69119;41.718;21.786;2023-08-12T06:23:56;6.70;;;2.60;;
79646;SDS011;69119;41.718;21.786;2023-08-12T06:26:22;6.07;;;2.97;;
79646;SDS011;69119;41.718;21.786;2023-08-12T06:28:48;6.60;;;3.03;;
79646;SDS011;69119;41.718;21.786;2023-08-12T06:31:14;9.15;;;3.30;;
79646;SDS011;69119;41.718;21.786;2023-08-12T06:33:41;5.57;;;2.15;;
79646;SDS011;69119;41.718;21.786;2023-08-12T06:36:07;6.03;;;2.15;;
79646;SDS011;69119;41.718;21.786;2023-08-12T06:38:33;6.15;;;2.45;;
79646;SDS011;69119;41.718;21.786;2023-08-12T06:40:59;7.13;;;2.75;;
79646;SDS011;69119;41.718;21.786;2023-08-12T06:43:25;6.40;;;2.67;;
79646;SDS011;69119;41.718;21.786;2023-08-12T06:48:17;5.28;;;2.35;;
79646;SDS011;69119;41.718;21.786;2023-08-12T06:53:09;5.82;;;2.67;;
79646;SDS011;69119;41.718;21.786;2023-08-12T06:58:01;5.38;;;2.13;;
79646;SDS011;69119;41.718;21.786;2023-08-12T07:00:27;6.13;;;2.35;;
79646;SDS011;69119;41.718;21.786;2023-08-12T07:02:53;8.30;;;2.53;;
79646;SDS011;69119;41.718;21.786;2023-08-12T07:05:19;6.63;;;2.67;;
79646;SDS011;69119;41.718;21.786;2023-08-12T07:07:45;5.07;;;1.83;;
79646;SDS011;69119;41.718;21.786;2023-08-12T07:12:37;5.32;;;2.13;;
79646;SDS011;69119;41.718;21.786;2023-08-12T07:15:04;7.35;;;2.92;;
79646;SDS011;69119;41.718;21.786;2023-08-12T07:17:30;8.63;;;2.60;;
79646;SDS011;69119;41.718;21.786;2023-08-12T07:22:22;5.15;;;2.40;;
79646;SDS011;69119;41.718;21.786;2023-08-12T07:24:48;5.78;;;2.28;;
79646;SDS011;69119;41.718;21.786;2023-08-12T07:27:14;6.07;;;2.65;;
79646;SDS011;69119;41.718;21.786;2023-08-12T07:32:06;5.60;;;2.13;;
79646;SDS011;69119;41.718;21.786;2023-08-12T07:34:32;7.03;;;2.72;;
79646;SDS011;69119;41.718;21.786;2023-08-12T07:36:58;7.05;;;2.63;;
79646;SDS011;69119;41.718;21.786;2023-08-12T07:39:24;5.30;;;1.98;;
79646;SDS011;69119;41.718;21.786;2023-08-12T07:41:50;5.22;;;2.15;;
79646;SDS011;69119;41.718;21.786;2023-08-12T07:44:16;5.75;;;1.92;;
79646;SDS011;69119;41.718;21.786;2023-08-12T07:49:08;5.53;;;2.22;;
79646;SDS011;69119;41.718;21.786;2023-08-12T07:51:35;5.22;;;2.42;;
79646;SDS011;69119;41.718;21.786;2023-08-12T07:56:27;6.45;;;2.28;;
79646;SDS011;69119;41.718;21.786;2023-08-12T07:58:53;7.03;;;2.42;;
79646;SDS011;69119;41.718;21.786;2023-08-12T08:01:19;6.10;;;2.38;;
79646;SDS011;69119;41.718;21.786;2023-08-12T08:03:45;6.00;;;2.58;;
79646;SDS011;69119;41.718;21.786;2023-08-12T08:06:11;5.53;;;2.55;;
79646;SDS011;69119;41.718;21.786;2023-08-12T08:08:37;5.72;;;2.53;;
79646;SDS011;69119;41.718;21.786;2023-08-12T08:11:03;5.80;;;2.78;;
79646;SDS011;69119;41.718;21.786;2023-08-12T08:13:29;6.45;;;3.03;;
79646;SDS011;69119;41.718;21.786;2023-08-12T08:15:55;5.20;;;2.28;;
79646;SDS011;69119;41.718;21.786;2023-08-12T08:18:21;5.75;;;3.10;;
79646;SDS011;69119;41.718;21.786;2023-08-12T08:20:48;6.00;;;2.53;;
79646;SDS011;69119;41.718;21.786;2023-08-12T08:23:14;5.55;;;2.60;;
79646;SDS011;69119;41.718;21.786;2023-08-12T08:25:40;5.97;;;2.15;;
79646;SDS011;69119;41.718;21.786;2023-08-12T08:28:06;5.22;;;2.80;;
79646;SDS011;69119;41.718;21.786;2023-08-12T08:30:33;5.72;;;2.50;;
79646;SDS011;69119;41.718;21.786;2023-08-12T08:32:59;5.75;;;2.58;;
79646;SDS011;69119;41.718;21.786;2023-08-12T08:35:25;5.63;;;2.88;;
79646;SDS011;69119;41.718;21.786;2023-08-12T08:37:51;6.05;;;2.78;;
79646;SDS011;69119;41.718;21.786;2023-08-12T08:40:17;6.07;;;2.55;;
79646;SDS011;69119;41.718;21.786;2023-08-12T08:42:43;8.45;;;2.25;;
79646;SDS011;69119;41.718;21.786;2023-08-12T08:45:12;8.43;;;2.67;;
79646;SDS011;69119;41.718;21.786;2023-08-12T08:47:39;5.32;;;2.63;;
79646;SDS011;69119;41.718;21.786;2023-08-12T08:50:06;6.70;;;2.83;;
79646;SDS011;69119;41.718;21.786;2023-08-12T08:52:34;7.28;;;3.08;;
79646;SDS011;69119;41.718;21.786;2023-08-12T08:55:01;6.13;;;2.63;;
79646;SDS011;69119;41.718;21.786;2023-08-12T08:57:27;5.28;;;2.45;;
79646;SDS011;69119;41.718;21.786;2023-08-12T08:59:54;7.43;;;3.75;;
79646;SDS011;69119;41.718;21.786;2023-08-12T09:02:20;5.35;;;2.63;;
79646;SDS011;69119;41.718;21.786;2023-08-12T09:04:46;5.57;;;2.53;;
79646;SDS011;69119;41.718;21.786;2023-08-12T09:07:13;6.68;;;2.83;;
79646;SDS011;69119;41.718;21.786;2023-08-12T09:09:39;7.05;;;3.40;;
79646;SDS011;69119;41.718;21.786;2023-08-12T09:12:07;6.57;;;2.40;;
79646;SDS011;69119;41.718;21.786;2023-08-12T09:14:34;5.43;;;2.58;;
79646;SDS011;69119;41.718;21.786;2023-08-12T09:17:00;6.00;;;3.13;;
79646;SDS011;69119;41.718;21.786;2023-08-12T09:19:27;5.57;;;2.58;;
79646;SDS011;69119;41.718;21.786;2023-08-12T09:21:53;6.55;;;2.95;;
79646;SDS011;69119;41.718;21.786;2023-08-12T09:24:26;6.25;;;2.45;;
79646;SDS011;69119;41.718;21.786;2023-08-12T09:26:55;6.22;;;2.70;;
79646;SDS011;69119;41.718;21.786;2023-08-12T09:29:31;6.05;;;2.78;;
79646;SDS011;69119;41.718;21.786;2023-08-12T09:32:13;5.55;;;2.35;;
79646;SDS011;69119;41.718;21.786;2023-08-12T09:34:49;5.43;;;2.22;;
79646;SDS011;69119;41.718;21.786;2023-08-12T09:37:16;7.43;;;2.72;;
79646;SDS011;69119;41.718;21.786;2023-08-12T09:39:42;9.43;;;4.03;;
79646;SDS011;69119;41.718;21.786;2023-08-12T09:42:10;8.82;;;3.15;;
79646;SDS011;69119;41.718;21.786;2023-08-12T09:44:36;6.50;;;3.33;;
79646;SDS011;69119;41.718;21.786;2023-08-12T09:47:02;6.07;;;2.35;;
79646;SDS011;69119;41.718;21.786;2023-08-12T09:49:28;5.15;;;2.40;;
79646;SDS011;69119;41.718;21.786;2023-08-12T09:51:57;5.18;;;2.22;;
79646;SDS011;69119;41.718;21.786;2023-08-12T09:54:26;6.10;;;2.85;;
79646;SDS011;69119;41.718;21.786;2023-08-12T09:56:54;5.75;;;2.78;;
79646;SDS011;69119;41.718;21.786;2023-08-12T09:59:21;5.88;;;2.42;;
79646;SDS011;69119;41.718;21.786;2023-08-12T10:01:49;6.03;;;2.45;;
79646;SDS011;69119;41.718;21.786;2023-08-12T10:04:21;5.63;;;2.53;;
79646;SDS011;69119;41.718;21.786;2023-08-12T10:06:47;5.00;;;2.47;;
79646;SDS011;69119;41.718;21.786;2023-08-12T10:09:15;5.78;;;2.50;;
79646;SDS011;69119;41.718;21.786;2023-08-12T10:11:42;7.97;;;2.35;;
79646;SDS011;69119;41.718;21.786;2023-08-12T10:14:11;7.75;;;2.80;;
79646;SDS011;69119;41.718;21.786;2023-08-12T10:16:37;6.20;;;2.70;;
79646;SDS011;69119;41.718;21.786;2023-08-12T10:19:04;5.35;;;2.80;;
79646;SDS011;69119;41.718;21.786;2023-08-12T10:21:31;5.47;;;2.35;;
79646;SDS011;69119;41.718;21.786;2023-08-12T10:23:58;7.32;;;2.67;;
79646;SDS011;69119;41.718;21.786;2023-08-12T10:26:24;5.47;;;2.17;;
79646;SDS011;69119;41.718;21.786;2023-08-12T10:28:51;8.18;;;2.55;;
79646;SDS011;69119;41.718;21.786;2023-08-12T10:31:18;5.25;;;1.95;;
79646;SDS011;69119;41.718;21.786;2023-08-12T10:33:44;5.93;;;2.33;;
79646;SDS011;69119;41.718;21.786;2023-08-12T10:36:14;5.60;;;2.50;;
79646;SDS011;69119;41.718;21.786;2023-08-12T10:38:40;4.60;;;1.80;;
79646;SDS011;69119;41.718;21.786;2023-08-12T10:41:19;4.90;;;1.67;;
79646;SDS011;69119;41.718;21.786;2023-08-12T10:43:52;6.40;;;1.85;;
79646;SDS011;69119;41.718;21.786;2023-08-12T10:49:07;5.10;;;2.05;;
79646;SDS011;69119;41.718;21.786;2023-08-12T10:54:10;4.95;;;1.90;;
79646;SDS011;69119;41.718;21.786;2023-08-12T10:57:03;4.85;;;1.98;;
79646;SDS011;69119;41.718;21.786;2023-08-12T11:04:49;4.40;;;1.58;;
79646;SDS011;69119;41.718;21.786;2023-08-12T11:07:17;6.15;;;2.22;;
79646;SDS011;69119;41.718;21.786;2023-08-12T11:09:43;5.22;;;2.40;;
79646;SDS011;69119;41.718;21.786;2023-08-12T11:12:10;8.43;;;2.63;;
79646;SDS011;69119;41.718;21.786;2023-08-12T11:14:47;6.43;;;2.78;;
79646;SDS011;69119;41.718;21.786;2023-08-12T11:17:14;6.05;;;2.45;;
79646;SDS011;69119;41.718;21.786;2023-08-12T11:19:41;5.72;;;2.20;;
79646;SDS011;69119;41.718;21.786;2023-08-12T11:22:08;5.35;;;1.90;;
79646;SDS011;69119;41.718;21.786;2023-08-12T11:24:34;5.53;;;2.30;;
79646;SDS011;69119;41.718;21.786;2023-08-12T11:27:02;6.50;;;2.50;;
79646;SDS011;69119;41.718;21.786;2023-08-12T11:29:28;5.90;;;2.13;;
79646;SDS011;69119;41.718;21.786;2023-08-12T11:31:54;5.38;;;2.72;;
79646;SDS011;69119;41.718;21.786;2023-08-12T11:34:20;5.25;;;2.17;;
79646;SDS011;69119;41.718;21.786;2023-08-12T11:36:46;6.90;;;3.08;;
79646;SDS011;69119;41.718;21.786;2023-08-12T11:39:12;7.07;;;2.78;;
79646;SDS011;69119;41.718;21.786;2023-08-12T11:41:39;5.00;;;1.95;;
79646;SDS011;69119;41.718;21.786;2023-08-12T11:44:05;6.35;;;2.13;;
79646;SDS011;69119;41.718;21.786;2023-08-12T11:46:34;5.72;;;2.60;;
79646;SDS011;69119;41.718;21.786;2023-08-12T11:49:00;5.82;;;1.92;;
79646;SDS011;69119;41.718;21.786;2023-08-12T11:51:26;4.53;;;1.52;;
79646;SDS011;69119;41.718;21.786;2023-08-12T11:53:52;6.15;;;2.15;;
79646;SDS011;69119;41.718;21.786;2023-08-12T11:56:18;5.25;;;2.30;;
79646;SDS011;69119;41.718;21.786;2023-08-12T11:58:48;7.22;;;2.92;;
79646;SDS011;69119;41.718;21.786;2023-08-12T12:01:18;5.78;;;2.53;;
79646;SDS011;69119;41.718;21.786;2023-08-12T12:03:44;5.60;;;1.52;;
79646;SDS011;69119;41.718;21.786;2023-08-12T12:06:10;5.20;;;2.40;;
79646;SDS011;69119;41.718;21.786;2023-08-12T12:08:38;5.55;;;1.67;;
79646;SDS011;69119;41.718;21.786;2023-08-12T12:11:05;5.05;;;1.77;;
79646;SDS011;69119;41.718;21.786;2023-08-12T12:13:31;4.95;;;1.88;;
79646;SDS011;69119;41.718;21.786;2023-08-12T12:15:57;5.43;;;2.45;;
79646;SDS011;69119;41.718;21.786;2023-08-12T12:18:24;4.90;;;2.13;;
79646;SDS011;69119;41.718;21.786;2023-08-12T12:20:55;5.35;;;1.98;;
79646;SDS011;69119;41.718;21.786;2023-08-12T12:23:21;5.43;;;2.28;;
79646;SDS011;69119;41.718;21.786;2023-08-12T12:25:47;6.28;;;2.20;;
79646;SDS011;69119;41.718;21.786;2023-08-12T12:28:14;4.72;;;1.98;;
79646;SDS011;69119;41.718;21.786;2023-08-12T12:30:40;5.60;;;2.33;;
79646;SDS011;69119;41.718;21.786;2023-08-12T12:33:06;6.18;;;2.15;;
79646;SDS011;69119;41.718;21.786;2023-08-12T12:35:32;9.25;;;2.13;;
79646;SDS011;69119;41.718;21.786;2023-08-12T12:37:58;6.22;;;2.78;;
79646;SDS011;69119;41.718;21.786;2023-08-12T12:40:24;5.50;;;2.13;;
79646;SDS011;69119;41.718;21.786;2023-08-12T12:42:50;5.10;;;2.13;;
79646;SDS011;69119;41.718;21.786;2023-08-12T12:45:16;5.95;;;2.25;;
79646;SDS011;69119;41.718;21.786;2023-08-12T12:47:42;4.93;;;1.77;;
79646;SDS011;69119;41.718;21.786;2023-08-12T12:50:08;5.82;;;2.33;;
79646;SDS011;69119;41.718;21.786;2023-08-12T12:52:35;5.00;;;1.90;;
79646;SDS011;69119;41.718;21.786;2023-08-12T12:55:01;5.88;;;2.10;;
79646;SDS011;69119;41.718;21.786;2023-08-12T12:57:29;5.72;;;2.00;;
79646;SDS011;69119;41.718;21.786;2023-08-12T12:59:55;6.95;;;2.15;;
79646;SDS011;69119;41.718;21.786;2023-08-12T13:02:21;5.45;;;2.10;;
79646;SDS011;69119;41.718;21.786;2023-08-12T13:04:47;5.00;;;2.08;;
79646;SDS011;69119;41.718;21.786;2023-08-12T13:07:14;6.90;;;2.60;;
79646;SDS011;69119;41.718;21.786;2023-08-12T13:09:40;5.82;;;2.22;;
79646;SDS011;69119;41.718;21.786;2023-08-12T13:12:06;5.22;;;2.25;;
79646;SDS011;69119;41.718;21.786;2023-08-12T13:14:33;4.97;;;2.13;;
79646;SDS011;69119;41.718;21.786;2023-08-12T13:16:59;5.00;;;2.58;;
79646;SDS011;69119;41.718;21.786;2023-08-12T13:19:25;5.43;;;1.88;;
79646;SDS011;69119;41.718;21.786;2023-08-12T13:21:51;6.45;;;2.25;;
79646;SDS011;69119;41.718;21.786;2023-08-12T13:24:17;5.28;;;1.83;;
79646;SDS011;69119;41.718;21.786;2023-08-12T13:26:43;5.93;;;2.45;;
79646;SDS011;69119;41.718;21.786;2023-08-12T13:29:09;5.20;;;2.13;;
79646;SDS011;69119;41.718;21.786;2023-08-12T13:31:35;6.72;;;2.05;;
79646;SDS011;69119;41.718;21.786;2023-08-12T13:34:01;5.03;;;1.77;;
79646;SDS011;69119;41.718;21.786;2023-08-12T13:36:28;6.43;;;1.80;;
79646;SDS011;69119;41.718;21.786;2023-08-12T13:38:55;5.18;;;1.70;;
79646;SDS011;69119;41.718;21.786;2023-08-12T13:41:21;4.75;;;1.92;;
79646;SDS011;69119;41.718;21.786;2023-08-12T13:43:47;5.55;;;1.92;;
79646;SDS011;69119;41.718;21.786;2023-08-12T13:46:13;4.55;;;1.77;;
79646;SDS011;69119;41.718;21.786;2023-08-12T13:48:40;4.63;;;1.70;;
79646;SDS011;69119;41.718;21.786;2023-08-12T13:51:07;4.70;;;1.65;;
79646;SDS011;69119;41.718;21.786;2023-08-12T13:53:33;5.75;;;2.08;;
79646;SDS011;69119;41.718;21.786;2023-08-12T13:55:59;5.32;;;1.92;;
79646;SDS011;69119;41.718;21.786;2023-08-12T13:58:25;4.85;;;2.03;;
79646;SDS011;69119;41.718;21.786;2023-08-12T14:00:51;4.85;;;2.33;;
79646;SDS011;69119;41.718;21.786;2023-08-12T14:03:17;7.22;;;1.92;;
79646;SDS011;69119;41.718;21.786;2023-08-12T14:05:44;6.00;;;2.63;;
79646;SDS011;69119;41.718;21.786;2023-08-12T14:08:10;5.15;;;1.90;;
79646;SDS011;69119;41.718;21.786;2023-08-12T14:10:36;4.90;;;1.92;;
79646;SDS011;69119;41.718;21.786;2023-08-12T14:13:02;6.47;;;2.78;;
79646;SDS011;69119;41.718;21.786;2023-08-12T14:15:28;5.50;;;2.35;;
79646;SDS011;69119;41.718;21.786;2023-08-12T14:17:54;5.15;;;2.00;;
79646;SDS011;69119;41.718;21.786;2023-08-12T14:20:20;5.00;;;1.92;;
79646;SDS011;69119;41.718;21.786;2023-08-12T14:22:46;5.13;;;2.03;;
79646;SDS011;69119;41.718;21.786;2023-08-12T14:25:13;5.47;;;2.10;;
79646;SDS011;69119;41.718;21.786;2023-08-12T14:27:39;5.90;;;2.05;;
79646;SDS011;69119;41.718;21.786;2023-08-12T14:30:05;5.15;;;1.70;;
79646;SDS011;69119;41.718;21.786;2023-08-12T14:32:32;7.22;;;2.30;;
79646;SDS011;69119;41.718;21.786;2023-08-12T14:34:58;5.57;;;1.98;;
79646;SDS011;69119;41.718;21.786;2023-08-12T14:37:24;5.57;;;2.40;;
79646;SDS011;69119;41.718;21.786;2023-08-12T14:39:50;5.45;;;1.85;;
79646;SDS011;69119;41.718;21.786;2023-08-12T14:42:16;5.22;;;2.17;;
79646;SDS011;69119;41.718;21.786;2023-08-12T14:44:42;5.25;;;2.33;;
79646;SDS011;69119;41.718;21.786;2023-08-12T14:47:08;4.97;;;1.67;;
79646;SDS011;69119;41.718;21.786;2023-08-12T14:49:34;6.03;;;2.20;;
79646;SDS011;69119;41.718;21.786;2023-08-12T14:52:00;5.03;;;1.80;;
79646;SDS011;69119;41.718;21.786;2023-08-12T14:54:28;4.63;;;1.73;;
79646;SDS011;69119;41.718;21.786;2023-08-12T14:56:54;6.95;;;1.95;;
79646;SDS011;69119;41.718;21.786;2023-08-12T14:59:20;4.80;;;2.13;;
79646;SDS011;69119;41.718;21.786;2023-08-12T15:01:46;5.20;;;1.83;;
79646;SDS011;69119;41.718;21.786;2023-08-12T15:04:12;5.85;;;2.45;;
79646;SDS011;69119;41.718;21.786;2023-08-12T15:06:38;4.88;;;1.95;;
79646;SDS011;69119;41.718;21.786;2023-08-12T15:09:04;4.70;;;1.95;;
79646;SDS011;69119;41.718;21.786;2023-08-12T15:11:30;4.93;;;1.83;;
79646;SDS011;69119;41.718;21.786;2023-08-12T15:13:56;5.03;;;1.83;;
79646;SDS011;69119;41.718;21.786;2023-08-12T15:16:22;5.82;;;2.35;;
79646;SDS011;69119;41.718;21.786;2023-08-12T15:18:49;4.47;;;1.77;;
79646;SDS011;69119;41.718;21.786;2023-08-12T15:21:15;5.60;;;2.10;;
79646;SDS011;69119;41.718;21.786;2023-08-12T15:23:41;5.65;;;2.45;;
79646;SDS011;69119;41.718;21.786;2023-08-12T15:26:07;5.72;;;2.17;;